CDT,Max TemperatureF,Mean TemperatureF,Min TemperatureF,Max Dew PointF,MeanDew PointF,Min DewpointF,Max Humidity, Mean Humidity, Min Humidity, Max Sea Level PressureIn, Mean Sea Level PressureIn, Min Sea Level PressureIn, Max VisibilityMiles, Mean VisibilityMiles, Min VisibilityMiles, Max Wind SpeedMPH, Mean Wind SpeedMPH, Max Gust SpeedMPH,PrecipitationIn, CloudCover, Events, WindDirDegrees
2012-10-1,75,66,60,62,58,57,94,83,55,29.79,29.70,29.62,10,7,0,10,6,22,0.03,7,Fog-Rain,321
2012-10-2,81,66,54,64,57,52,100,84,40,29.97,29.86,29.78,10,5,0,6,1,,0.04,1,Fog-Rain,56
2012-10-3,82,70,57,64,60,55,100,85,42,30.10,30.02,29.97,10,5,0,6,0,,0.00,1,Fog,185
2012-10-4,87,72,57,68,60,55,100,87,41,30.21,30.15,30.10,10,3,0,6,0,,0.01,1,Fog,128
2012-10-5,87,73,60,69,62,57,94,87,44,30.15,30.10,29.99,10,4,0,8,1,,0.00,0,Fog,170
2012-10-6,70,62,54,64,58,47,100,84,63,30.15,30.06,30.00,10,7,1,9,3,,0.01,5,,26
2012-10-7,64,58,51,49,46,43,83,71,52,30.23,30.16,30.12,10,10,10,9,5,,0.00,7,,19
2012-10-8,69,56,46,49,46,44,93,72,49,30.24,30.18,30.13,10,9,2,8,3,,0.00,5,,19
2012-10-9,78,60,42,61,50,40,93,80,48,30.15,30.09,29.99,10,8,2,5,1,,0.00,0,,154
2012-10-10,88,70,57,68,63,56,94,79,58,30.17,30.12,30.07,10,8,2,8,1,,0.00,3,,55
2012-10-11,87,73,59,69,63,57,97,83,44,30.23,30.17,30.14,10,6,0,8,1,,0.00,0,Fog,160
2012-10-12,82,70,57,67,61,57,100,89,49,30.26,30.19,30.16,10,3,0,8,0,,0.01,0,Fog,125
2012-10-13,87,73,60,70,64,59,100,86,51,30.19,30.14,30.03,10,4,0,10,2,18,0.00,4,Fog,170
2012-10-14,86,76,69,72,70,67,94,83,55,30.11,30.02,29.96,10,8,1,12,7,,0.54,6,Rain-Thunderstorm,195
2012-10-15,82,68,55,68,58,46,94,76,29,30.08,30.02,29.96,10,8,0,8,2,,0.00,0,Fog,28
2012-10-16,75,62,50,63,54,49,96,84,46,30.01,29.94,29.83,10,7,1,8,1,,0.01,0,,132
2012-10-17,86,70,55,73,61,54,100,86,56,29.83,29.77,29.64,10,6,1,14,2,21,0.00,2,,201
2012-10-18,80,66,51,73,53,37,93,68,22,29.95,29.86,29.71,10,9,2,22,6,47,0.08,1,Rain-Thunderstorm,11
2012-10-19,79,62,45,50,43,30,93,64,17,29.98,29.93,29.88,10,10,10,15,3,24,0.00,0,,281
2012-10-20,82,63,44,55,47,41,93,68,24,30.00,29.95,29.90,10,10,8,7,1,,0.01,0,,198
2012-10-21,86,68,52,62,56,50,93,74,36,30.07,30.02,29.95,10,10,9,9,2,20,0.00,1,,183
2012-10-22,84,67,50,64,54,48,100,86,43,30.13,30.07,30.01,10,4,0,10,1,,0.01,2,Fog,137
2012-10-23,84,72,60,66,63,57,94,86,47,30.08,30.03,29.97,10,5,0,7,2,,0.00,3,Fog,136
2012-10-24,84,72,59,68,62,57,100,89,51,30.08,30.02,29.95,10,3,0,7,1,,0.01,2,Fog,127
2012-10-25,86,73,60,69,64,59,100,83,48,29.99,29.94,29.90,10,7,1,9,2,,0.00,3,,146
2012-10-26,69,58,48,66,57,43,100,89,75,30.17,30.03,29.94,10,6,0,12,2,24,0.01,5,Fog-Rain,3
2012-10-27,63,54,45,42,39,36,82,64,39,30.18,30.13,30.05,10,10,10,10,5,20,0.00,2,,343
2012-10-28,64,52,39,41,35,31,89,63,29,30.22,30.17,30.13,10,10,10,10,4,18,0.00,0,,349
2012-10-29,64,49,34,41,35,31,96,68,29,30.28,30.20,30.14,10,10,10,9,2,16,0.00,0,,10
2012-10-30,71,52,34,46,38,32,93,70,28,30.15,30.08,30.00,10,10,7,8,1,,0.00,0,,284
2012-10-31,82,62,42,59,51,40,100,80,39,30.04,30.00,29.93,10,7,1,14,2,21,0.00,0,,251